Strona główna
METAR-TAF:

METAR-TAF

Lotnisko :

Platforma wiertnicza

Hoorn-a, Holandia

Szerokość geograficzna: 52-55-05N, Długość geograficzna: 4-09-01E, wysokość: 41 m

Aktualna obserwacja pogody

Raport powstał 21 minut temu, godzina 00:25 UTC
Wiatr 24 kt od wschodnio-północny wschód
Temperatura 21°C
Wilgotność 83%
Ciśnienie 1015 hPa
Widzialność 10 km lub więcej

METAR: EHQE 240025Z AUTO 06024KT 9999 NSC 21/18 Q1015 W///H///

czas: 02:46 (00:46 UTC)


TAF: brakujący

Obserwacja i prognoza pogody dla ponad 4000 lotnisk (raport METAR i TAF).

Dostępne stacje oznaczono żółtymi i czerwonymi punktami na mapie.

Najedź kursorem aby zobaczyć nazwę stacji.

Kliknij aby zobaczyć obserwacje i prognozy pogody.

Aby zmienić mapę: kliknij na zielony przycisk z czarnym krzyżykiem, aby powiększyć; na zielony przycisk z myślnikiem, aby pomniejszyć; na zielone strzałki, aby przejść do map sąsiednich.


METAR-TAF: